sim
Sign-in with your pilot id or email,
or register
Callsign
Passwort

Schedule Details

Flight Number: DLH2700 (1)
Departure: Munich Airport (EDDM) at 12:00
Arrival: Dusseldorf International Airport (EDDL) at 13:10
Route: Lufthansa Passenger Schedule. Enter filed route here before submitting Pirep.

Weather Information
Getting current METAR information for EDDM 241650Z 08006KT CAVOK 18/14 Q1006 NOSIG
Getting current METAR information for EDDL 241650Z 19011KT CAVOK 19/05 Q1000 NOSIG

Schedule Frequency

Route Map